sensor_id;sensor_type;location;lat;lon;timestamp;temperature;humidity
15296;DHT22;7749;49.964;7.890;2023-06-22T00:00:34;23.60;1.00
15296;DHT22;7749;49.964;7.890;2023-06-22T00:03:01;23.50;1.00
15296;DHT22;7749;49.964;7.890;2023-06-22T00:05:37;23.30;1.00
15296;DHT22;7749;49.964;7.890;2023-06-22T00:08:05;23.30;1.00
15296;DHT22;7749;49.964;7.890;2023-06-22T00:10:33;23.30;31.40
15296;DHT22;7749;49.964;7.890;2023-06-22T00:13:04;23.20;40.50
15296;DHT22;7749;49.964;7.890;2023-06-22T00:15:31;23.20;7.10
15296;DHT22;7749;49.964;7.890;2023-06-22T00:17:59;23.00;21.90
15296;DHT22;7749;49.964;7.890;2023-06-22T00:20:28;22.90;77.40
15296;DHT22;7749;49.964;7.890;2023-06-22T00:22:58;22.80;82.60
15296;DHT22;7749;49.964;7.890;2023-06-22T00:25:26;22.70;91.80
15296;DHT22;7749;49.964;7.890;2023-06-22T00:27:54;22.60;99.90
15296;DHT22;7749;49.964;7.890;2023-06-22T00:30:22;22.50;99.90
15296;DHT22;7749;49.964;7.890;2023-06-22T00:32:49;22.50;99.90
15296;DHT22;7749;49.964;7.890;2023-06-22T00:35:17;22.50;99.90
15296;DHT22;7749;49.964;7.890;2023-06-22T00:37:44;22.60;99.90
15296;DHT22;7749;49.964;7.890;2023-06-22T00:40:11;22.70;99.90
15296;DHT22;7749;49.964;7.890;2023-06-22T00:42:42;22.80;99.90
15296;DHT22;7749;49.964;7.890;2023-06-22T00:45:10;22.80;99.90
15296;DHT22;7749;49.964;7.890;2023-06-22T00:47:37;22.60;99.90
15296;DHT22;7749;49.964;7.890;2023-06-22T00:50:06;22.60;99.90
15296;DHT22;7749;49.964;7.890;2023-06-22T00:52:35;22.50;99.90
15296;DHT22;7749;49.964;7.890;2023-06-22T00:55:04;22.50;99.90
15296;DHT22;7749;49.964;7.890;2023-06-22T00:57:32;22.50;99.90
15296;DHT22;7749;49.964;7.890;2023-06-22T01:00:03;22.50;99.90
15296;DHT22;7749;49.964;7.890;2023-06-22T01:02:35;22.40;99.90
15296;DHT22;7749;49.964;7.890;2023-06-22T01:05:05;22.30;99.90
15296;DHT22;7749;49.964;7.890;2023-06-22T01:07:42;22.20;99.90
15296;DHT22;7749;49.964;7.890;2023-06-22T01:16:15;21.70;99.90
15296;DHT22;7749;49.964;7.890;2023-06-22T01:18:45;21.90;99.90
15296;DHT22;7749;49.964;7.890;2023-06-22T01:21:19;22.00;99.90
15296;DHT22;7749;49.964;7.890;2023-06-22T01:27:18;22.10;99.90
15296;DHT22;7749;49.964;7.890;2023-06-22T01:29:51;22.20;99.90
15296;DHT22;7749;49.964;7.890;2023-06-22T01:32:20;22.20;99.90
15296;DHT22;7749;49.964;7.890;2023-06-22T01:34:48;22.20;99.90
15296;DHT22;7749;49.964;7.890;2023-06-22T01:37:16;22.20;99.90
15296;DHT22;7749;49.964;7.890;2023-06-22T01:39:44;22.10;99.90
15296;DHT22;7749;49.964;7.890;2023-06-22T01:42:12;21.70;99.90
15296;DHT22;7749;49.964;7.890;2023-06-22T01:44:40;21.50;99.90
15296;DHT22;7749;49.964;7.890;2023-06-22T01:47:07;21.50;99.90
15296;DHT22;7749;49.964;7.890;2023-06-22T01:49:35;21.50;99.90
15296;DHT22;7749;49.964;7.890;2023-06-22T01:52:04;21.50;99.90
15296;DHT22;7749;49.964;7.890;2023-06-22T01:54:32;21.40;99.90
15296;DHT22;7749;49.964;7.890;2023-06-22T01:57:00;21.50;99.90
15296;DHT22;7749;49.964;7.890;2023-06-22T02:02:16;21.40;99.90
15296;DHT22;7749;49.964;7.890;2023-06-22T02:05:31;21.50;99.90
15296;DHT22;7749;49.964;7.890;2023-06-22T02:08:13;21.40;99.90
15296;DHT22;7749;49.964;7.890;2023-06-22T02:10:46;21.60;99.90
15296;DHT22;7749;49.964;7.890;2023-06-22T02:13:14;21.60;99.90
15296;DHT22;7749;49.964;7.890;2023-06-22T02:15:43;21.70;99.90
15296;DHT22;7749;49.964;7.890;2023-06-22T02:18:11;21.60;99.90
15296;DHT22;7749;49.964;7.890;2023-06-22T02:20:39;21.70;99.90
15296;DHT22;7749;49.964;7.890;2023-06-22T02:23:07;21.50;99.90
15296;DHT22;7749;49.964;7.890;2023-06-22T02:25:35;21.60;99.90
15296;DHT22;7749;49.964;7.890;2023-06-22T02:28:03;21.60;99.90
15296;DHT22;7749;49.964;7.890;2023-06-22T02:30:31;21.60;99.90
15296;DHT22;7749;49.964;7.890;2023-06-22T02:32:59;21.60;99.90
15296;DHT22;7749;49.964;7.890;2023-06-22T02:35:28;21.50;99.90
15296;DHT22;7749;49.964;7.890;2023-06-22T02:37:59;21.50;99.90
15296;DHT22;7749;49.964;7.890;2023-06-22T02:40:28;21.50;99.90
15296;DHT22;7749;49.964;7.890;2023-06-22T02:42:58;21.60;99.90
15296;DHT22;7749;49.964;7.890;2023-06-22T02:45:30;21.60;99.90
15296;DHT22;7749;49.964;7.890;2023-06-22T02:47:57;21.50;99.90
15296;DHT22;7749;49.964;7.890;2023-06-22T02:50:25;21.60;99.90
15296;DHT22;7749;49.964;7.890;2023-06-22T02:52:53;21.70;99.90
15296;DHT22;7749;49.964;7.890;2023-06-22T02:55:20;21.70;99.90
15296;DHT22;7749;49.964;7.890;2023-06-22T02:57:47;21.80;99.90
15296;DHT22;7749;49.964;7.890;2023-06-22T03:00:19;21.80;99.90
15296;DHT22;7749;49.964;7.890;2023-06-22T03:02:47;21.70;99.90
15296;DHT22;7749;49.964;7.890;2023-06-22T03:05:16;21.70;99.90
15296;DHT22;7749;49.964;7.890;2023-06-22T03:07:45;21.50;99.90
15296;DHT22;7749;49.964;7.890;2023-06-22T03:10:13;21.60;99.90
15296;DHT22;7749;49.964;7.890;2023-06-22T03:12:42;21.40;99.90
15296;DHT22;7749;49.964;7.890;2023-06-22T03:15:12;21.00;99.90
15296;DHT22;7749;49.964;7.890;2023-06-22T03:17:40;21.00;99.90
15296;DHT22;7749;49.964;7.890;2023-06-22T03:20:09;20.90;99.90
15296;DHT22;7749;49.964;7.890;2023-06-22T03:22:39;20.90;99.90
15296;DHT22;7749;49.964;7.890;2023-06-22T03:25:10;20.90;99.90
15296;DHT22;7749;49.964;7.890;2023-06-22T03:27:37;20.80;99.90
15296;DHT22;7749;49.964;7.890;2023-06-22T03:30:06;20.80;99.90
15296;DHT22;7749;49.964;7.890;2023-06-22T03:32:34;20.70;99.90
15296;DHT22;7749;49.964;7.890;2023-06-22T03:35:02;20.60;99.90
15296;DHT22;7749;49.964;7.890;2023-06-22T03:37:30;20.60;99.90
15296;DHT22;7749;49.964;7.890;2023-06-22T03:39:57;20.70;99.90
15296;DHT22;7749;49.964;7.890;2023-06-22T03:42:25;20.60;99.90
15296;DHT22;7749;49.964;7.890;2023-06-22T03:44:53;20.60;99.90
15296;DHT22;7749;49.964;7.890;2023-06-22T03:47:20;20.60;99.90
15296;DHT22;7749;49.964;7.890;2023-06-22T03:49:48;20.60;99.90
15296;DHT22;7749;49.964;7.890;2023-06-22T03:52:15;20.50;99.90
15296;DHT22;7749;49.964;7.890;2023-06-22T03:54:42;20.50;99.90
15296;DHT22;7749;49.964;7.890;2023-06-22T03:57:10;20.50;99.90
15296;DHT22;7749;49.964;7.890;2023-06-22T03:59:39;20.50;99.90
15296;DHT22;7749;49.964;7.890;2023-06-22T04:02:06;20.50;99.90
15296;DHT22;7749;49.964;7.890;2023-06-22T04:04:34;20.50;99.90
15296;DHT22;7749;49.964;7.890;2023-06-22T04:07:03;20.50;99.90
15296;DHT22;7749;49.964;7.890;2023-06-22T04:09:31;20.60;99.90
15296;DHT22;7749;49.964;7.890;2023-06-22T04:11:59;20.50;99.90
15296;DHT22;7749;49.964;7.890;2023-06-22T04:14:26;20.50;99.90
15296;DHT22;7749;49.964;7.890;2023-06-22T04:16:55;20.50;99.90
15296;DHT22;7749;49.964;7.890;2023-06-22T04:19:23;20.50;99.90
15296;DHT22;7749;49.964;7.890;2023-06-22T04:21:50;20.50;99.90
15296;DHT22;7749;49.964;7.890;2023-06-22T04:24:18;20.50;99.90
15296;DHT22;7749;49.964;7.890;2023-06-22T04:26:45;20.50;99.90
15296;DHT22;7749;49.964;7.890;2023-06-22T04:29:14;20.40;99.90
15296;DHT22;7749;49.964;7.890;2023-06-22T04:31:41;20.40;99.90
15296;DHT22;7749;49.964;7.890;2023-06-22T04:34:09;20.40;99.90
15296;DHT22;7749;49.964;7.890;2023-06-22T04:36:38;20.50;99.90
15296;DHT22;7749;49.964;7.890;2023-06-22T04:39:10;20.50;99.90
15296;DHT22;7749;49.964;7.890;2023-06-22T04:41:39;20.40;99.90
15296;DHT22;7749;49.964;7.890;2023-06-22T04:46:38;20.40;99.90
15296;DHT22;7749;49.964;7.890;2023-06-22T04:49:09;20.50;99.90
15296;DHT22;7749;49.964;7.890;2023-06-22T04:51:41;20.50;99.90
15296;DHT22;7749;49.964;7.890;2023-06-22T04:54:09;20.40;99.90
15296;DHT22;7749;49.964;7.890;2023-06-22T04:56:38;20.50;99.90
15296;DHT22;7749;49.964;7.890;2023-06-22T04:59:08;20.50;99.90
15296;DHT22;7749;49.964;7.890;2023-06-22T05:01:35;20.60;99.90
15296;DHT22;7749;49.964;7.890;2023-06-22T05:04:03;20.60;99.90
15296;DHT22;7749;49.964;7.890;2023-06-22T05:06:32;20.70;99.90
15296;DHT22;7749;49.964;7.890;2023-06-22T05:09:00;20.70;99.90
15296;DHT22;7749;49.964;7.890;2023-06-22T05:11:28;20.80;99.90
15296;DHT22;7749;49.964;7.890;2023-06-22T05:13:56;20.90;99.90
15296;DHT22;7749;49.964;7.890;2023-06-22T05:16:24;20.90;99.90
15296;DHT22;7749;49.964;7.890;2023-06-22T05:18:53;20.90;99.90
15296;DHT22;7749;49.964;7.890;2023-06-22T05:21:25;21.10;99.90
15296;DHT22;7749;49.964;7.890;2023-06-22T05:23:53;21.20;99.90
15296;DHT22;7749;49.964;7.890;2023-06-22T05:26:22;21.20;99.90
15296;DHT22;7749;49.964;7.890;2023-06-22T05:28:49;21.20;99.90
15296;DHT22;7749;49.964;7.890;2023-06-22T05:31:17;21.30;99.90
15296;DHT22;7749;49.964;7.890;2023-06-22T05:33:48;21.30;99.90
15296;DHT22;7749;49.964;7.890;2023-06-22T05:36:16;21.30;99.90
15296;DHT22;7749;49.964;7.890;2023-06-22T05:38:43;21.20;99.90
15296;DHT22;7749;49.964;7.890;2023-06-22T05:41:11;21.40;99.90
15296;DHT22;7749;49.964;7.890;2023-06-22T05:43:38;21.50;99.90
15296;DHT22;7749;49.964;7.890;2023-06-22T05:46:06;21.60;99.90
15296;DHT22;7749;49.964;7.890;2023-06-22T05:48:34;21.50;99.90
15296;DHT22;7749;49.964;7.890;2023-06-22T05:51:01;21.60;99.90
15296;DHT22;7749;49.964;7.890;2023-06-22T05:53:28;21.70;99.90
15296;DHT22;7749;49.964;7.890;2023-06-22T05:55:56;21.80;99.90
15296;DHT22;7749;49.964;7.890;2023-06-22T05:58:24;22.00;99.90
15296;DHT22;7749;49.964;7.890;2023-06-22T06:00:51;22.20;99.90
15296;DHT22;7749;49.964;7.890;2023-06-22T06:03:20;22.20;99.90
15296;DHT22;7749;49.964;7.890;2023-06-22T06:05:47;22.40;99.90
15296;DHT22;7749;49.964;7.890;2023-06-22T06:08:15;22.40;99.90
15296;DHT22;7749;49.964;7.890;2023-06-22T06:10:42;22.40;99.90
15296;DHT22;7749;49.964;7.890;2023-06-22T06:13:10;22.50;99.90
15296;DHT22;7749;49.964;7.890;2023-06-22T06:15:37;22.50;99.90
15296;DHT22;7749;49.964;7.890;2023-06-22T06:18:05;22.40;99.90
15296;DHT22;7749;49.964;7.890;2023-06-22T06:20:34;22.30;99.90
15296;DHT22;7749;49.964;7.890;2023-06-22T06:23:01;22.40;99.90
15296;DHT22;7749;49.964;7.890;2023-06-22T06:25:29;22.30;99.90
15296;DHT22;7749;49.964;7.890;2023-06-22T06:27:56;22.30;99.90
15296;DHT22;7749;49.964;7.890;2023-06-22T06:30:24;22.30;99.90
15296;DHT22;7749;49.964;7.890;2023-06-22T06:32:52;22.50;99.90
15296;DHT22;7749;49.964;7.890;2023-06-22T06:35:19;22.70;99.90
15296;DHT22;7749;49.964;7.890;2023-06-22T06:37:49;22.70;99.90
15296;DHT22;7749;49.964;7.890;2023-06-22T06:40:22;22.60;99.90
15296;DHT22;7749;49.964;7.890;2023-06-22T06:42:50;22.60;99.90
15296;DHT22;7749;49.964;7.890;2023-06-22T06:45:20;22.70;99.90
15296;DHT22;7749;49.964;7.890;2023-06-22T06:47:52;22.90;99.90
15296;DHT22;7749;49.964;7.890;2023-06-22T06:50:20;23.10;99.90
15296;DHT22;7749;49.964;7.890;2023-06-22T06:52:48;23.40;99.90
15296;DHT22;7749;49.964;7.890;2023-06-22T06:55:17;23.60;99.90
15296;DHT22;7749;49.964;7.890;2023-06-22T06:57:46;23.70;99.90
15296;DHT22;7749;49.964;7.890;2023-06-22T07:00:17;23.70;99.90
15296;DHT22;7749;49.964;7.890;2023-06-22T07:02:45;23.60;99.90
15296;DHT22;7749;49.964;7.890;2023-06-22T07:05:16;23.60;99.90
15296;DHT22;7749;49.964;7.890;2023-06-22T07:07:43;23.40;99.90
15296;DHT22;7749;49.964;7.890;2023-06-22T07:10:11;23.40;99.90
15296;DHT22;7749;49.964;7.890;2023-06-22T07:12:39;23.60;99.90
15296;DHT22;7749;49.964;7.890;2023-06-22T07:15:08;23.60;99.90
15296;DHT22;7749;49.964;7.890;2023-06-22T07:17:38;23.80;99.90
15296;DHT22;7749;49.964;7.890;2023-06-22T07:20:08;24.10;99.90
15296;DHT22;7749;49.964;7.890;2023-06-22T07:22:38;24.20;99.90
15296;DHT22;7749;49.964;7.890;2023-06-22T07:25:07;24.20;99.90
15296;DHT22;7749;49.964;7.890;2023-06-22T07:27:45;24.30;99.90
15296;DHT22;7749;49.964;7.890;2023-06-22T07:30:13;24.40;99.90
15296;DHT22;7749;49.964;7.890;2023-06-22T07:32:41;24.60;99.90
15296;DHT22;7749;49.964;7.890;2023-06-22T07:35:09;24.50;99.90
15296;DHT22;7749;49.964;7.890;2023-06-22T07:37:36;24.50;99.90
15296;DHT22;7749;49.964;7.890;2023-06-22T07:40:04;24.80;99.90
15296;DHT22;7749;49.964;7.890;2023-06-22T07:42:34;24.90;99.90
15296;DHT22;7749;49.964;7.890;2023-06-22T07:45:03;24.80;99.90
15296;DHT22;7749;49.964;7.890;2023-06-22T07:47:31;24.80;99.90
15296;DHT22;7749;49.964;7.890;2023-06-22T07:50:03;25.10;99.90
15296;DHT22;7749;49.964;7.890;2023-06-22T07:52:31;25.40;94.90
15296;DHT22;7749;49.964;7.890;2023-06-22T07:54:58;25.60;91.00
15296;DHT22;7749;49.964;7.890;2023-06-22T07:57:26;25.60;65.80
15296;DHT22;7749;49.964;7.890;2023-06-22T08:00:00;25.80;50.40
15296;DHT22;7749;49.964;7.890;2023-06-22T08:02:28;26.10;26.70
15296;DHT22;7749;49.964;7.890;2023-06-22T08:04:55;26.40;19.60
15296;DHT22;7749;49.964;7.890;2023-06-22T08:07:37;26.70;2.70
15296;DHT22;7749;49.964;7.890;2023-06-22T08:10:05;27.00;1.00
15296;DHT22;7749;49.964;7.890;2023-06-22T08:12:33;27.10;1.00
15296;DHT22;7749;49.964;7.890;2023-06-22T08:15:00;27.20;1.00
15296;DHT22;7749;49.964;7.890;2023-06-22T08:17:29;27.30;1.00
15296;DHT22;7749;49.964;7.890;2023-06-22T08:19:58;27.60;1.00
15296;DHT22;7749;49.964;7.890;2023-06-22T08:22:25;27.90;1.00
15296;DHT22;7749;49.964;7.890;2023-06-22T08:24:53;27.90;1.00
15296;DHT22;7749;49.964;7.890;2023-06-22T08:27:20;28.10;1.00
15296;DHT22;7749;49.964;7.890;2023-06-22T08:29:50;28.20;1.00
15296;DHT22;7749;49.964;7.890;2023-06-22T08:32:21;28.20;1.00
15296;DHT22;7749;49.964;7.890;2023-06-22T08:34:48;28.10;1.00
15296;DHT22;7749;49.964;7.890;2023-06-22T08:37:16;28.30;1.00
15296;DHT22;7749;49.964;7.890;2023-06-22T08:39:43;28.50;1.00
15296;DHT22;7749;49.964;7.890;2023-06-22T08:42:11;28.90;96.30
15296;DHT22;7749;49.964;7.890;2023-06-22T08:44:39;29.00;1.00
15296;DHT22;7749;49.964;7.890;2023-06-22T08:47:06;29.30;1.00
15296;DHT22;7749;49.964;7.890;2023-06-22T08:49:34;29.40;1.00
15296;DHT22;7749;49.964;7.890;2023-06-22T08:52:01;29.60;1.00
15296;DHT22;7749;49.964;7.890;2023-06-22T08:54:29;29.80;1.00
15296;DHT22;7749;49.964;7.890;2023-06-22T08:56:56;29.80;1.00
15296;DHT22;7749;49.964;7.890;2023-06-22T08:59:24;29.80;1.00
15296;DHT22;7749;49.964;7.890;2023-06-22T09:01:51;29.90;1.00
15296;DHT22;7749;49.964;7.890;2023-06-22T09:04:19;30.00;1.00
15296;DHT22;7749;49.964;7.890;2023-06-22T09:06:49;30.10;1.00
15296;DHT22;7749;49.964;7.890;2023-06-22T09:09:22;30.20;1.00
15296;DHT22;7749;49.964;7.890;2023-06-22T09:11:49;30.40;1.00
15296;DHT22;7749;49.964;7.890;2023-06-22T09:14:17;30.20;1.00
15296;DHT22;7749;49.964;7.890;2023-06-22T09:16:44;30.10;99.90
15296;DHT22;7749;49.964;7.890;2023-06-22T09:19:12;30.10;1.00
15296;DHT22;7749;49.964;7.890;2023-06-22T09:21:39;30.30;99.90
15296;DHT22;7749;49.964;7.890;2023-06-22T09:24:07;30.10;99.90
15296;DHT22;7749;49.964;7.890;2023-06-22T09:26:35;30.20;99.90
15296;DHT22;7749;49.964;7.890;2023-06-22T09:29:05;30.00;99.90
15296;DHT22;7749;49.964;7.890;2023-06-22T09:31:33;30.20;99.90
15296;DHT22;7749;49.964;7.890;2023-06-22T09:34:00;30.20;1.00
15296;DHT22;7749;49.964;7.890;2023-06-22T09:36:28;30.30;1.00
15296;DHT22;7749;49.964;7.890;2023-06-22T09:38:55;30.50;1.00
15296;DHT22;7749;49.964;7.890;2023-06-22T09:41:25;31.00;99.90
15296;DHT22;7749;49.964;7.890;2023-06-22T09:43:53;31.30;1.00
15296;DHT22;7749;49.964;7.890;2023-06-22T09:46:23;31.20;99.90
15296;DHT22;7749;49.964;7.890;2023-06-22T09:48:53;30.70;1.00
15296;DHT22;7749;49.964;7.890;2023-06-22T09:51:22;30.60;99.90
15296;DHT22;7749;49.964;7.890;2023-06-22T09:53:51;30.50;99.90
15296;DHT22;7749;49.964;7.890;2023-06-22T09:56:22;30.60;1.00
15296;DHT22;7749;49.964;7.890;2023-06-22T09:58:50;30.60;99.90
15296;DHT22;7749;49.964;7.890;2023-06-22T10:01:21;30.70;88.80
15296;DHT22;7749;49.964;7.890;2023-06-22T10:03:49;30.70;1.00
15296;DHT22;7749;49.964;7.890;2023-06-22T10:06:16;30.40;72.00
15296;DHT22;7749;49.964;7.890;2023-06-22T10:08:44;30.20;99.90
15296;DHT22;7749;49.964;7.890;2023-06-22T10:11:11;30.10;1.00
15296;DHT22;7749;49.964;7.890;2023-06-22T10:13:39;30.30;1.00
15296;DHT22;7749;49.964;7.890;2023-06-22T10:16:06;30.60;1.00
15296;DHT22;7749;49.964;7.890;2023-06-22T10:18:34;31.10;1.00
15296;DHT22;7749;49.964;7.890;2023-06-22T10:21:01;31.40;99.90
15296;DHT22;7749;49.964;7.890;2023-06-22T10:23:29;31.20;99.90
15296;DHT22;7749;49.964;7.890;2023-06-22T10:25:56;31.20;99.90
15296;DHT22;7749;49.964;7.890;2023-06-22T10:28:25;31.30;1.00
15296;DHT22;7749;49.964;7.890;2023-06-22T10:30:53;31.50;99.90
15296;DHT22;7749;49.964;7.890;2023-06-22T10:33:20;31.50;99.90
15296;DHT22;7749;49.964;7.890;2023-06-22T10:35:48;31.60;1.00
15296;DHT22;7749;49.964;7.890;2023-06-22T10:38:16;31.70;1.00
15296;DHT22;7749;49.964;7.890;2023-06-22T10:40:43;31.90;1.00
15296;DHT22;7749;49.964;7.890;2023-06-22T10:43:11;32.10;1.00
15296;DHT22;7749;49.964;7.890;2023-06-22T10:45:39;32.20;1.00
15296;DHT22;7749;49.964;7.890;2023-06-22T10:48:06;32.30;99.90
15296;DHT22;7749;49.964;7.890;2023-06-22T10:50:34;32.30;99.90
15296;DHT22;7749;49.964;7.890;2023-06-22T10:53:01;32.30;99.90
15296;DHT22;7749;49.964;7.890;2023-06-22T10:55:29;32.50;1.00
15296;DHT22;7749;49.964;7.890;2023-06-22T10:58:13;32.80;1.00
15296;DHT22;7749;49.964;7.890;2023-06-22T11:00:40;33.00;1.00
15296;DHT22;7749;49.964;7.890;2023-06-22T11:03:08;32.90;1.00
15296;DHT22;7749;49.964;7.890;2023-06-22T11:05:38;33.00;1.00
15296;DHT22;7749;49.964;7.890;2023-06-22T11:08:06;33.20;1.00
15296;DHT22;7749;49.964;7.890;2023-06-22T11:10:33;33.20;1.00
15296;DHT22;7749;49.964;7.890;2023-06-22T11:13:00;33.40;99.90
15296;DHT22;7749;49.964;7.890;2023-06-22T11:15:29;33.40;99.90
15296;DHT22;7749;49.964;7.890;2023-06-22T11:17:57;33.30;99.90
15296;DHT22;7749;49.964;7.890;2023-06-22T11:20:25;33.50;99.90
15296;DHT22;7749;49.964;7.890;2023-06-22T11:22:52;33.80;99.90
15296;DHT22;7749;49.964;7.890;2023-06-22T11:25:20;34.00;88.50
15296;DHT22;7749;49.964;7.890;2023-06-22T11:27:47;34.20;19.80
15296;DHT22;7749;49.964;7.890;2023-06-22T11:30:15;35.10;1.00
15296;DHT22;7749;49.964;7.890;2023-06-22T11:32:42;36.00;1.00
15296;DHT22;7749;49.964;7.890;2023-06-22T11:35:10;36.70;1.00
15296;DHT22;7749;49.964;7.890;2023-06-22T11:37:37;37.10;1.00
15296;DHT22;7749;49.964;7.890;2023-06-22T11:40:05;37.60;1.00
15296;DHT22;7749;49.964;7.890;2023-06-22T11:42:36;37.00;1.00
15296;DHT22;7749;49.964;7.890;2023-06-22T11:45:06;36.40;1.00
15296;DHT22;7749;49.964;7.890;2023-06-22T11:47:34;36.30;1.00
15296;DHT22;7749;49.964;7.890;2023-06-22T11:50:02;36.30;1.00
15296;DHT22;7749;49.964;7.890;2023-06-22T11:52:30;36.00;1.00
15296;DHT22;7749;49.964;7.890;2023-06-22T11:54:57;36.10;1.00
15296;DHT22;7749;49.964;7.890;2023-06-22T11:57:26;37.20;1.00
15296;DHT22;7749;49.964;7.890;2023-06-22T11:59:54;38.40;1.00
15296;DHT22;7749;49.964;7.890;2023-06-22T12:02:21;39.50;99.90
15296;DHT22;7749;49.964;7.890;2023-06-22T12:04:49;40.00;99.90
15296;DHT22;7749;49.964;7.890;2023-06-22T12:07:19;39.40;99.90
15296;DHT22;7749;49.964;7.890;2023-06-22T12:09:47;38.70;99.90
15296;DHT22;7749;49.964;7.890;2023-06-22T12:12:14;38.80;99.90
15296;DHT22;7749;49.964;7.890;2023-06-22T12:14:41;39.10;99.90
15296;DHT22;7749;49.964;7.890;2023-06-22T12:17:09;39.00;99.90
15296;DHT22;7749;49.964;7.890;2023-06-22T12:19:36;39.70;99.90
15296;DHT22;7749;49.964;7.890;2023-06-22T12:22:04;40.60;99.90
15296;DHT22;7749;49.964;7.890;2023-06-22T12:24:31;40.80;99.90
15296;DHT22;7749;49.964;7.890;2023-06-22T12:26:59;40.50;99.90
15296;DHT22;7749;49.964;7.890;2023-06-22T12:29:26;40.40;99.90
15296;DHT22;7749;49.964;7.890;2023-06-22T12:31:54;39.40;99.90
15296;DHT22;7749;49.964;7.890;2023-06-22T12:34:22;39.60;99.90
15296;DHT22;7749;49.964;7.890;2023-06-22T12:36:49;40.60;99.90
15296;DHT22;7749;49.964;7.890;2023-06-22T12:39:17;41.40;99.90
15296;DHT22;7749;49.964;7.890;2023-06-22T12:41:44;42.00;99.90
15296;DHT22;7749;49.964;7.890;2023-06-22T12:44:12;42.60;99.90
15296;DHT22;7749;49.964;7.890;2023-06-22T12:46:39;42.00;99.90
15296;DHT22;7749;49.964;7.890;2023-06-22T12:49:07;42.00;99.90
15296;DHT22;7749;49.964;7.890;2023-06-22T12:51:40;42.00;99.90
15296;DHT22;7749;49.964;7.890;2023-06-22T12:54:09;42.20;99.90
15296;DHT22;7749;49.964;7.890;2023-06-22T12:56:37;42.40;99.90
15296;DHT22;7749;49.964;7.890;2023-06-22T12:59:05;42.00;99.90
15296;DHT22;7749;49.964;7.890;2023-06-22T13:01:33;41.90;99.90
15296;DHT22;7749;49.964;7.890;2023-06-22T13:04:00;41.80;99.90
15296;DHT22;7749;49.964;7.890;2023-06-22T13:06:28;41.50;99.90
15296;DHT22;7749;49.964;7.890;2023-06-22T13:08:56;40.80;99.90
15296;DHT22;7749;49.964;7.890;2023-06-22T13:11:43;39.40;99.90
15296;DHT22;7749;49.964;7.890;2023-06-22T13:14:10;38.00;99.90
15296;DHT22;7749;49.964;7.890;2023-06-22T13:16:38;37.50;99.90
15296;DHT22;7749;49.964;7.890;2023-06-22T13:19:05;37.70;99.90
15296;DHT22;7749;49.964;7.890;2023-06-22T13:21:34;37.70;99.90
15296;DHT22;7749;49.964;7.890;2023-06-22T13:24:02;37.10;99.90
15296;DHT22;7749;49.964;7.890;2023-06-22T13:26:30;37.00;99.90
15296;DHT22;7749;49.964;7.890;2023-06-22T13:28:58;36.70;99.90
15296;DHT22;7749;49.964;7.890;2023-06-22T13:31:25;36.20;99.90
15296;DHT22;7749;49.964;7.890;2023-06-22T13:33:53;35.60;99.90
15296;DHT22;7749;49.964;7.890;2023-06-22T13:36:21;34.90;99.90
15296;DHT22;7749;49.964;7.890;2023-06-22T13:38:50;34.50;99.90
15296;DHT22;7749;49.964;7.890;2023-06-22T13:41:18;34.50;99.90
15296;DHT22;7749;49.964;7.890;2023-06-22T13:43:45;35.10;99.90
15296;DHT22;7749;49.964;7.890;2023-06-22T13:46:26;36.20;99.90
15296;DHT22;7749;49.964;7.890;2023-06-22T13:49:26;36.70;99.90
15296;DHT22;7749;49.964;7.890;2023-06-22T13:52:11;36.20;99.90
15296;DHT22;7749;49.964;7.890;2023-06-22T13:55:07;35.50;99.90
15296;DHT22;7749;49.964;7.890;2023-06-22T13:57:43;34.70;99.90
15296;DHT22;7749;49.964;7.890;2023-06-22T14:00:22;34.10;99.90
15296;DHT22;7749;49.964;7.890;2023-06-22T14:02:50;33.70;99.90
15296;DHT22;7749;49.964;7.890;2023-06-22T14:05:18;33.40;99.90
15296;DHT22;7749;49.964;7.890;2023-06-22T14:07:54;33.20;1.00
15296;DHT22;7749;49.964;7.890;2023-06-22T14:10:53;32.90;1.00
15296;DHT22;7749;49.964;7.890;2023-06-22T14:13:26;32.70;1.00
15296;DHT22;7749;49.964;7.890;2023-06-22T14:15:56;32.50;1.00
15296;DHT22;7749;49.964;7.890;2023-06-22T14:18:24;32.40;1.00
15296;DHT22;7749;49.964;7.890;2023-06-22T14:20:51;32.40;1.00
15296;DHT22;7749;49.964;7.890;2023-06-22T14:23:21;32.30;1.00
15296;DHT22;7749;49.964;7.890;2023-06-22T14:25:49;32.40;1.00
15296;DHT22;7749;49.964;7.890;2023-06-22T14:28:19;32.40;1.00
15296;DHT22;7749;49.964;7.890;2023-06-22T14:30:47;32.30;1.00
15296;DHT22;7749;49.964;7.890;2023-06-22T14:33:15;32.30;1.00
15296;DHT22;7749;49.964;7.890;2023-06-22T14:35:43;32.10;1.00
15296;DHT22;7749;49.964;7.890;2023-06-22T14:38:10;32.20;1.00
15296;DHT22;7749;49.964;7.890;2023-06-22T14:40:39;32.20;1.00
15296;DHT22;7749;49.964;7.890;2023-06-22T14:43:26;32.30;1.00
15296;DHT22;7749;49.964;7.890;2023-06-22T14:45:54;32.10;1.00
15296;DHT22;7749;49.964;7.890;2023-06-22T14:48:22;32.00;1.00
15296;DHT22;7749;49.964;7.890;2023-06-22T14:50:49;32.00;1.00
15296;DHT22;7749;49.964;7.890;2023-06-22T14:53:17;31.90;1.00
15296;DHT22;7749;49.964;7.890;2023-06-22T14:55:44;31.90;1.00
15296;DHT22;7749;49.964;7.890;2023-06-22T14:58:12;31.90;1.00
15296;DHT22;7749;49.964;7.890;2023-06-22T15:00:40;32.00;1.00
15296;DHT22;7749;49.964;7.890;2023-06-22T15:03:10;31.90;1.00
15296;DHT22;7749;49.964;7.890;2023-06-22T15:05:46;32.00;1.00
15296;DHT22;7749;49.964;7.890;2023-06-22T15:08:13;32.00;1.00
15296;DHT22;7749;49.964;7.890;2023-06-22T15:10:41;32.10;1.00
15296;DHT22;7749;49.964;7.890;2023-06-22T15:13:08;32.00;1.00
15296;DHT22;7749;49.964;7.890;2023-06-22T15:15:36;31.90;1.00
15296;DHT22;7749;49.964;7.890;2023-06-22T15:18:04;31.80;1.00
15296;DHT22;7749;49.964;7.890;2023-06-22T15:20:31;31.60;1.00
15296;DHT22;7749;49.964;7.890;2023-06-22T15:22:59;30.90;1.00
15296;DHT22;7749;49.964;7.890;2023-06-22T15:25:27;29.10;1.00
15296;DHT22;7749;49.964;7.890;2023-06-22T15:27:55;27.70;1.00
15296;DHT22;7749;49.964;7.890;2023-06-22T15:30:29;26.30;1.00
15296;DHT22;7749;49.964;7.890;2023-06-22T15:33:32;25.50;99.90
15296;DHT22;7749;49.964;7.890;2023-06-22T15:36:52;24.10;99.90
15296;DHT22;7749;49.964;7.890;2023-06-22T15:45:01;22.80;99.90
15296;DHT22;7749;49.964;7.890;2023-06-22T15:48:01;23.00;99.90
15296;DHT22;7749;49.964;7.890;2023-06-22T15:55:51;23.40;99.90
15296;DHT22;7749;49.964;7.890;2023-06-22T16:02:53;24.50;99.90
15296;DHT22;7749;49.964;7.890;2023-06-22T16:10:12;25.60;99.90
15296;DHT22;7749;49.964;7.890;2023-06-22T16:14:07;26.50;99.90
15296;DHT22;7749;49.964;7.890;2023-06-22T16:17:08;26.50;99.90
15296;DHT22;7749;49.964;7.890;2023-06-22T16:27:14;28.80;1.00
15296;DHT22;7749;49.964;7.890;2023-06-22T16:30:20;29.30;1.00
15296;DHT22;7749;49.964;7.890;2023-06-22T16:33:25;29.60;1.00
15296;DHT22;7749;49.964;7.890;2023-06-22T16:36:13;30.10;1.00
15296;DHT22;7749;49.964;7.890;2023-06-22T16:39:10;30.70;1.00
15296;DHT22;7749;49.964;7.890;2023-06-22T16:42:12;30.80;1.00
15296;DHT22;7749;49.964;7.890;2023-06-22T16:44:51;30.50;1.00
15296;DHT22;7749;49.964;7.890;2023-06-22T16:47:38;30.20;1.00
15296;DHT22;7749;49.964;7.890;2023-06-22T16:50:41;30.00;1.00